sensor_id;sensor_type;location;lat;lon;timestamp;P1;durP1;ratioP1;P2;durP2;ratioP2
27428;SDS011;14881;48.092;11.574;2022-09-29T00:00:09;2.85;;;2.55;;
27428;SDS011;14881;48.092;11.574;2022-09-29T00:02:38;2.80;;;2.55;;
27428;SDS011;14881;48.092;11.574;2022-09-29T00:05:07;3.10;;;2.55;;
27428;SDS011;14881;48.092;11.574;2022-09-29T00:07:35;5.82;;;2.50;;
27428;SDS011;14881;48.092;11.574;2022-09-29T00:10:04;4.32;;;2.42;;
27428;SDS011;14881;48.092;11.574;2022-09-29T00:12:32;3.33;;;2.28;;
27428;SDS011;14881;48.092;11.574;2022-09-29T00:15:02;3.17;;;2.40;;
27428;SDS011;14881;48.092;11.574;2022-09-29T00:17:31;3.10;;;2.50;;
27428;SDS011;14881;48.092;11.574;2022-09-29T00:19:59;2.78;;;2.30;;
27428;SDS011;14881;48.092;11.574;2022-09-29T00:22:28;3.90;;;2.33;;
27428;SDS011;14881;48.092;11.574;2022-09-29T00:24:56;2.63;;;2.42;;
27428;SDS011;14881;48.092;11.574;2022-09-29T00:27:24;3.80;;;1.95;;
27428;SDS011;14881;48.092;11.574;2022-09-29T00:29:52;2.38;;;2.05;;
27428;SDS011;14881;48.092;11.574;2022-09-29T00:32:21;4.30;;;2.05;;
27428;SDS011;14881;48.092;11.574;2022-09-29T00:34:49;3.92;;;2.13;;
27428;SDS011;14881;48.092;11.574;2022-09-29T00:37:17;2.78;;;2.45;;
27428;SDS011;14881;48.092;11.574;2022-09-29T00:39:44;3.45;;;2.35;;
27428;SDS011;14881;48.092;11.574;2022-09-29T00:42:12;3.75;;;2.28;;
27428;SDS011;14881;48.092;11.574;2022-09-29T00:44:52;3.28;;;2.60;;
27428;SDS011;14881;48.092;11.574;2022-09-29T00:47:26;3.25;;;2.28;;
27428;SDS011;14881;48.092;11.574;2022-09-29T00:49:56;4.00;;;2.38;;
27428;SDS011;14881;48.092;11.574;2022-09-29T00:52:29;2.83;;;2.42;;
27428;SDS011;14881;48.092;11.574;2022-09-29T00:55:01;5.18;;;2.45;;
27428;SDS011;14881;48.092;11.574;2022-09-29T00:57:34;6.75;;;2.60;;
27428;SDS011;14881;48.092;11.574;2022-09-29T01:00:07;3.55;;;2.78;;
27428;SDS011;14881;48.092;11.574;2022-09-29T01:02:39;2.67;;;2.47;;
27428;SDS011;14881;48.092;11.574;2022-09-29T01:05:13;2.60;;;2.40;;
27428;SDS011;14881;48.092;11.574;2022-09-29T01:07:44;7.68;;;2.65;;
27428;SDS011;14881;48.092;11.574;2022-09-29T01:10:13;3.95;;;2.40;;
27428;SDS011;14881;48.092;11.574;2022-09-29T01:12:43;2.35;;;2.17;;
27428;SDS011;14881;48.092;11.574;2022-09-29T01:15:13;4.07;;;2.75;;
27428;SDS011;14881;48.092;11.574;2022-09-29T01:17:46;2.72;;;2.25;;
27428;SDS011;14881;48.092;11.574;2022-09-29T01:20:15;4.63;;;2.92;;
27428;SDS011;14881;48.092;11.574;2022-09-29T01:22:51;3.67;;;2.53;;
27428;SDS011;14881;48.092;11.574;2022-09-29T01:28:40;3.63;;;2.70;;
27428;SDS011;14881;48.092;11.574;2022-09-29T01:31:27;5.25;;;2.70;;
27428;SDS011;14881;48.092;11.574;2022-09-29T01:34:02;3.42;;;3.00;;
27428;SDS011;14881;48.092;11.574;2022-09-29T01:36:38;4.53;;;2.58;;
27428;SDS011;14881;48.092;11.574;2022-09-29T01:39:16;3.60;;;2.70;;
27428;SDS011;14881;48.092;11.574;2022-09-29T01:41:52;4.35;;;2.95;;
27428;SDS011;14881;48.092;11.574;2022-09-29T01:44:24;4.65;;;2.92;;
27428;SDS011;14881;48.092;11.574;2022-09-29T01:46:57;3.60;;;3.00;;
27428;SDS011;14881;48.092;11.574;2022-09-29T01:49:29;3.58;;;3.08;;
27428;SDS011;14881;48.092;11.574;2022-09-29T01:52:01;4.20;;;3.13;;
27428;SDS011;14881;48.092;11.574;2022-09-29T01:54:39;3.33;;;2.83;;
27428;SDS011;14881;48.092;11.574;2022-09-29T01:57:12;3.97;;;3.10;;
27428;SDS011;14881;48.092;11.574;2022-09-29T01:59:44;6.47;;;3.88;;
27428;SDS011;14881;48.092;11.574;2022-09-29T02:02:19;3.78;;;3.20;;
27428;SDS011;14881;48.092;11.574;2022-09-29T02:04:55;3.45;;;2.90;;
27428;SDS011;14881;48.092;11.574;2022-09-29T02:07:26;3.30;;;3.00;;
27428;SDS011;14881;48.092;11.574;2022-09-29T02:10:01;3.30;;;3.00;;
27428;SDS011;14881;48.092;11.574;2022-09-29T02:12:33;3.17;;;2.88;;
27428;SDS011;14881;48.092;11.574;2022-09-29T02:15:04;4.10;;;2.78;;
27428;SDS011;14881;48.092;11.574;2022-09-29T02:17:37;5.80;;;2.55;;
27428;SDS011;14881;48.092;11.574;2022-09-29T02:20:09;3.88;;;3.10;;
27428;SDS011;14881;48.092;11.574;2022-09-29T02:22:39;4.25;;;3.70;;
27428;SDS011;14881;48.092;11.574;2022-09-29T02:25:09;3.65;;;3.10;;
27428;SDS011;14881;48.092;11.574;2022-09-29T02:27:39;4.75;;;3.35;;
27428;SDS011;14881;48.092;11.574;2022-09-29T02:30:07;3.85;;;3.45;;
27428;SDS011;14881;48.092;11.574;2022-09-29T02:32:38;4.30;;;3.25;;
27428;SDS011;14881;48.092;11.574;2022-09-29T02:35:07;5.22;;;3.83;;
27428;SDS011;14881;48.092;11.574;2022-09-29T02:37:40;3.78;;;3.40;;
27428;SDS011;14881;48.092;11.574;2022-09-29T02:40:26;4.65;;;3.75;;
27428;SDS011;14881;48.092;11.574;2022-09-29T02:43:04;4.72;;;4.22;;
27428;SDS011;14881;48.092;11.574;2022-09-29T02:45:40;5.75;;;4.18;;
27428;SDS011;14881;48.092;11.574;2022-09-29T02:48:30;5.75;;;4.18;;
27428;SDS011;14881;48.092;11.574;2022-09-29T02:51:20;5.18;;;3.65;;
27428;SDS011;14881;48.092;11.574;2022-09-29T02:53:57;8.10;;;4.00;;
27428;SDS011;14881;48.092;11.574;2022-09-29T02:56:37;6.90;;;4.72;;
27428;SDS011;14881;48.092;11.574;2022-09-29T02:59:12;5.15;;;4.53;;
27428;SDS011;14881;48.092;11.574;2022-09-29T03:01:46;6.88;;;5.30;;
27428;SDS011;14881;48.092;11.574;2022-09-29T03:04:17;6.85;;;5.88;;
27428;SDS011;14881;48.092;11.574;2022-09-29T03:06:46;7.80;;;6.20;;
27428;SDS011;14881;48.092;11.574;2022-09-29T03:09:14;7.82;;;6.43;;
27428;SDS011;14881;48.092;11.574;2022-09-29T03:11:42;10.30;;;7.45;;
27428;SDS011;14881;48.092;11.574;2022-09-29T03:14:09;8.90;;;7.20;;
27428;SDS011;14881;48.092;11.574;2022-09-29T03:16:38;11.52;;;7.93;;
27428;SDS011;14881;48.092;11.574;2022-09-29T03:19:05;15.38;;;9.80;;
27428;SDS011;14881;48.092;11.574;2022-09-29T03:21:35;9.70;;;7.95;;
27428;SDS011;14881;48.092;11.574;2022-09-29T03:24:02;9.02;;;7.55;;
27428;SDS011;14881;48.092;11.574;2022-09-29T03:26:31;9.13;;;7.57;;
27428;SDS011;14881;48.092;11.574;2022-09-29T03:28:58;9.65;;;7.38;;
27428;SDS011;14881;48.092;11.574;2022-09-29T03:31:26;8.95;;;7.20;;
27428;SDS011;14881;48.092;11.574;2022-09-29T03:33:54;9.95;;;7.20;;
27428;SDS011;14881;48.092;11.574;2022-09-29T03:36:22;7.63;;;6.20;;
27428;SDS011;14881;48.092;11.574;2022-09-29T03:38:51;6.32;;;4.80;;
27428;SDS011;14881;48.092;11.574;2022-09-29T03:41:19;5.93;;;5.07;;
27428;SDS011;14881;48.092;11.574;2022-09-29T03:43:46;6.63;;;5.43;;
27428;SDS011;14881;48.092;11.574;2022-09-29T03:46:14;6.45;;;5.22;;
27428;SDS011;14881;48.092;11.574;2022-09-29T03:48:42;5.93;;;4.88;;
27428;SDS011;14881;48.092;11.574;2022-09-29T03:51:10;6.22;;;5.15;;
27428;SDS011;14881;48.092;11.574;2022-09-29T03:53:37;7.05;;;4.53;;
27428;SDS011;14881;48.092;11.574;2022-09-29T03:56:06;4.80;;;4.28;;
27428;SDS011;14881;48.092;11.574;2022-09-29T03:58:34;4.97;;;4.00;;
27428;SDS011;14881;48.092;11.574;2022-09-29T04:01:02;4.60;;;3.92;;
27428;SDS011;14881;48.092;11.574;2022-09-29T04:03:30;4.18;;;3.78;;
27428;SDS011;14881;48.092;11.574;2022-09-29T04:05:58;5.13;;;3.83;;
27428;SDS011;14881;48.092;11.574;2022-09-29T04:08:26;4.53;;;3.80;;
27428;SDS011;14881;48.092;11.574;2022-09-29T04:10:53;5.05;;;3.40;;
27428;SDS011;14881;48.092;11.574;2022-09-29T04:13:22;4.47;;;3.42;;
27428;SDS011;14881;48.092;11.574;2022-09-29T04:15:50;3.78;;;3.38;;
27428;SDS011;14881;48.092;11.574;2022-09-29T04:18:18;3.75;;;3.25;;
27428;SDS011;14881;48.092;11.574;2022-09-29T04:20:46;3.80;;;3.38;;
27428;SDS011;14881;48.092;11.574;2022-09-29T04:23:14;3.30;;;3.00;;
27428;SDS011;14881;48.092;11.574;2022-09-29T04:25:42;4.07;;;3.67;;
27428;SDS011;14881;48.092;11.574;2022-09-29T04:28:10;2.80;;;2.60;;
27428;SDS011;14881;48.092;11.574;2022-09-29T04:30:40;3.20;;;2.90;;
27428;SDS011;14881;48.092;11.574;2022-09-29T04:33:07;3.20;;;2.90;;
27428;SDS011;14881;48.092;11.574;2022-09-29T04:35:35;3.25;;;2.85;;
27428;SDS011;14881;48.092;11.574;2022-09-29T04:38:03;3.20;;;2.88;;
27428;SDS011;14881;48.092;11.574;2022-09-29T04:40:30;3.00;;;2.70;;
27428;SDS011;14881;48.092;11.574;2022-09-29T04:42:58;4.15;;;3.10;;
27428;SDS011;14881;48.092;11.574;2022-09-29T04:45:26;3.40;;;3.10;;
27428;SDS011;14881;48.092;11.574;2022-09-29T04:47:55;3.22;;;2.85;;
27428;SDS011;14881;48.092;11.574;2022-09-29T04:50:23;4.38;;;2.70;;
27428;SDS011;14881;48.092;11.574;2022-09-29T04:52:51;4.35;;;3.22;;
27428;SDS011;14881;48.092;11.574;2022-09-29T04:55:18;3.40;;;3.10;;
27428;SDS011;14881;48.092;11.574;2022-09-29T04:57:46;3.65;;;3.33;;
27428;SDS011;14881;48.092;11.574;2022-09-29T05:00:14;5.05;;;3.17;;
27428;SDS011;14881;48.092;11.574;2022-09-29T05:02:42;3.63;;;3.15;;
27428;SDS011;14881;48.092;11.574;2022-09-29T05:05:16;5.53;;;3.13;;
27428;SDS011;14881;48.092;11.574;2022-09-29T05:07:44;4.95;;;3.03;;
27428;SDS011;14881;48.092;11.574;2022-09-29T05:10:13;4.90;;;2.92;;
27428;SDS011;14881;48.092;11.574;2022-09-29T05:12:46;5.00;;;3.38;;
27428;SDS011;14881;48.092;11.574;2022-09-29T05:15:15;3.05;;;2.75;;
27428;SDS011;14881;48.092;11.574;2022-09-29T05:17:50;3.75;;;3.45;;
27428;SDS011;14881;48.092;11.574;2022-09-29T05:20:19;4.20;;;3.20;;
27428;SDS011;14881;48.092;11.574;2022-09-29T05:22:47;3.90;;;2.70;;
27428;SDS011;14881;48.092;11.574;2022-09-29T05:25:15;3.17;;;2.88;;
27428;SDS011;14881;48.092;11.574;2022-09-29T05:27:43;3.13;;;2.80;;
27428;SDS011;14881;48.092;11.574;2022-09-29T05:30:10;3.05;;;2.75;;
27428;SDS011;14881;48.092;11.574;2022-09-29T05:32:38;3.35;;;3.05;;
27428;SDS011;14881;48.092;11.574;2022-09-29T05:35:06;3.13;;;2.83;;
27428;SDS011;14881;48.092;11.574;2022-09-29T05:37:36;3.67;;;3.38;;
27428;SDS011;14881;48.092;11.574;2022-09-29T05:40:04;3.20;;;2.90;;
27428;SDS011;14881;48.092;11.574;2022-09-29T05:42:33;3.40;;;2.95;;
27428;SDS011;14881;48.092;11.574;2022-09-29T05:45:01;4.93;;;3.42;;
27428;SDS011;14881;48.092;11.574;2022-09-29T05:47:29;4.63;;;2.65;;
27428;SDS011;14881;48.092;11.574;2022-09-29T05:49:56;4.72;;;3.60;;
27428;SDS011;14881;48.092;11.574;2022-09-29T05:52:24;4.15;;;3.42;;
27428;SDS011;14881;48.092;11.574;2022-09-29T05:54:53;4.43;;;3.95;;
27428;SDS011;14881;48.092;11.574;2022-09-29T05:57:21;7.63;;;5.00;;
27428;SDS011;14881;48.092;11.574;2022-09-29T05:59:49;9.32;;;6.47;;
27428;SDS011;14881;48.092;11.574;2022-09-29T06:02:17;10.75;;;5.97;;
27428;SDS011;14881;48.092;11.574;2022-09-29T06:04:45;7.15;;;5.63;;
27428;SDS011;14881;48.092;11.574;2022-09-29T06:07:12;6.75;;;5.97;;
27428;SDS011;14881;48.092;11.574;2022-09-29T06:09:40;8.43;;;5.85;;
27428;SDS011;14881;48.092;11.574;2022-09-29T06:12:09;6.97;;;5.70;;
27428;SDS011;14881;48.092;11.574;2022-09-29T06:14:37;8.85;;;5.70;;
27428;SDS011;14881;48.092;11.574;2022-09-29T06:17:05;6.53;;;5.47;;
27428;SDS011;14881;48.092;11.574;2022-09-29T06:19:32;7.68;;;5.78;;
27428;SDS011;14881;48.092;11.574;2022-09-29T06:22:00;6.38;;;5.40;;
27428;SDS011;14881;48.092;11.574;2022-09-29T06:24:28;6.53;;;5.63;;
27428;SDS011;14881;48.092;11.574;2022-09-29T06:26:56;8.50;;;5.78;;
27428;SDS011;14881;48.092;11.574;2022-09-29T06:29:25;8.07;;;5.82;;
27428;SDS011;14881;48.092;11.574;2022-09-29T06:32:04;8.40;;;5.95;;
27428;SDS011;14881;48.092;11.574;2022-09-29T06:35:12;7.03;;;5.72;;
27428;SDS011;14881;48.092;11.574;2022-09-29T06:37:57;7.05;;;5.95;;
27428;SDS011;14881;48.092;11.574;2022-09-29T06:40:25;11.52;;;6.78;;
27428;SDS011;14881;48.092;11.574;2022-09-29T06:42:53;9.45;;;6.53;;
27428;SDS011;14881;48.092;11.574;2022-09-29T06:45:22;9.00;;;6.72;;
27428;SDS011;14881;48.092;11.574;2022-09-29T06:47:50;7.72;;;5.38;;
27428;SDS011;14881;48.092;11.574;2022-09-29T06:50:23;11.07;;;5.55;;
27428;SDS011;14881;48.092;11.574;2022-09-29T06:52:51;6.68;;;5.45;;
27428;SDS011;14881;48.092;11.574;2022-09-29T06:55:29;6.53;;;4.72;;
27428;SDS011;14881;48.092;11.574;2022-09-29T06:57:57;5.38;;;4.68;;
27428;SDS011;14881;48.092;11.574;2022-09-29T07:00:31;5.78;;;4.45;;
27428;SDS011;14881;48.092;11.574;2022-09-29T07:03:00;7.40;;;3.75;;
27428;SDS011;14881;48.092;11.574;2022-09-29T07:05:28;5.28;;;3.88;;
27428;SDS011;14881;48.092;11.574;2022-09-29T07:07:58;4.65;;;3.88;;
27428;SDS011;14881;48.092;11.574;2022-09-29T07:10:26;6.45;;;4.07;;
27428;SDS011;14881;48.092;11.574;2022-09-29T07:12:54;5.57;;;4.20;;
27428;SDS011;14881;48.092;11.574;2022-09-29T07:15:22;5.50;;;4.47;;
27428;SDS011;14881;48.092;11.574;2022-09-29T07:17:58;5.37;;;4.30;;
27428;SDS011;14881;48.092;11.574;2022-09-29T07:20:28;5.10;;;3.45;;
27428;SDS011;14881;48.092;11.574;2022-09-29T07:22:56;5.63;;;4.50;;
27428;SDS011;14881;48.092;11.574;2022-09-29T07:25:24;4.47;;;4.07;;
27428;SDS011;14881;48.092;11.574;2022-09-29T07:28:13;7.80;;;4.45;;
27428;SDS011;14881;48.092;11.574;2022-09-29T07:30:40;4.93;;;4.00;;
27428;SDS011;14881;48.092;11.574;2022-09-29T07:33:10;4.47;;;3.50;;
27428;SDS011;14881;48.092;11.574;2022-09-29T07:35:38;3.70;;;3.00;;
27428;SDS011;14881;48.092;11.574;2022-09-29T07:38:06;4.35;;;2.80;;
27428;SDS011;14881;48.092;11.574;2022-09-29T07:40:34;4.57;;;3.35;;
27428;SDS011;14881;48.092;11.574;2022-09-29T07:43:02;5.53;;;3.17;;
27428;SDS011;14881;48.092;11.574;2022-09-29T07:45:30;6.03;;;2.95;;
27428;SDS011;14881;48.092;11.574;2022-09-29T07:47:58;3.38;;;2.60;;
27428;SDS011;14881;48.092;11.574;2022-09-29T07:50:27;5.30;;;3.03;;
27428;SDS011;14881;48.092;11.574;2022-09-29T07:52:55;6.93;;;3.20;;
27428;SDS011;14881;48.092;11.574;2022-09-29T07:55:23;4.93;;;2.90;;
27428;SDS011;14881;48.092;11.574;2022-09-29T07:57:52;5.43;;;2.90;;
27428;SDS011;14881;48.092;11.574;2022-09-29T08:00:22;3.72;;;2.78;;
27428;SDS011;14881;48.092;11.574;2022-09-29T08:02:51;4.97;;;2.95;;
27428;SDS011;14881;48.092;11.574;2022-09-29T08:05:20;6.75;;;3.65;;
27428;SDS011;14881;48.092;11.574;2022-09-29T08:07:51;9.40;;;3.20;;
27428;SDS011;14881;48.092;11.574;2022-09-29T08:10:19;3.35;;;2.88;;
27428;SDS011;14881;48.092;11.574;2022-09-29T08:12:47;5.78;;;3.17;;
27428;SDS011;14881;48.092;11.574;2022-09-29T08:15:16;6.97;;;2.95;;
27428;SDS011;14881;48.092;11.574;2022-09-29T08:17:43;6.00;;;2.72;;
27428;SDS011;14881;48.092;11.574;2022-09-29T08:20:11;4.68;;;3.47;;
27428;SDS011;14881;48.092;11.574;2022-09-29T08:22:40;9.30;;;3.97;;
27428;SDS011;14881;48.092;11.574;2022-09-29T08:25:09;5.45;;;3.20;;
27428;SDS011;14881;48.092;11.574;2022-09-29T08:27:37;3.28;;;2.78;;
27428;SDS011;14881;48.092;11.574;2022-09-29T08:30:19;3.03;;;2.50;;
27428;SDS011;14881;48.092;11.574;2022-09-29T08:32:51;2.00;;;1.80;;
27428;SDS011;14881;48.092;11.574;2022-09-29T08:35:19;3.08;;;1.90;;
27428;SDS011;14881;48.092;11.574;2022-09-29T08:37:47;4.00;;;2.03;;
27428;SDS011;14881;48.092;11.574;2022-09-29T08:40:17;2.63;;;2.38;;
27428;SDS011;14881;48.092;11.574;2022-09-29T08:42:47;4.93;;;2.15;;
27428;SDS011;14881;48.092;11.574;2022-09-29T08:45:26;1.73;;;1.63;;
27428;SDS011;14881;48.092;11.574;2022-09-29T08:48:00;1.80;;;1.70;;
27428;SDS011;14881;48.092;11.574;2022-09-29T08:50:46;2.05;;;1.40;;
27428;SDS011;14881;48.092;11.574;2022-09-29T08:53:19;1.60;;;1.38;;
27428;SDS011;14881;48.092;11.574;2022-09-29T08:55:56;2.35;;;1.55;;
27428;SDS011;14881;48.092;11.574;2022-09-29T08:58:26;2.90;;;1.80;;
27428;SDS011;14881;48.092;11.574;2022-09-29T09:00:57;1.83;;;1.73;;
27428;SDS011;14881;48.092;11.574;2022-09-29T09:03:47;1.70;;;1.60;;
27428;SDS011;14881;48.092;11.574;2022-09-29T09:06:28;3.10;;;2.10;;
27428;SDS011;14881;48.092;11.574;2022-09-29T09:09:08;1.98;;;1.77;;
27428;SDS011;14881;48.092;11.574;2022-09-29T09:15:06;2.15;;;1.73;;
27428;SDS011;14881;48.092;11.574;2022-09-29T09:17:50;2.92;;;1.45;;
27428;SDS011;14881;48.092;11.574;2022-09-29T09:20:31;1.98;;;1.58;;
27428;SDS011;14881;48.092;11.574;2022-09-29T09:23:04;3.00;;;1.52;;
27428;SDS011;14881;48.092;11.574;2022-09-29T09:25:40;1.60;;;1.50;;
27428;SDS011;14881;48.092;11.574;2022-09-29T09:28:15;4.32;;;1.75;;
27428;SDS011;14881;48.092;11.574;2022-09-29T09:30:48;3.17;;;1.30;;
27428;SDS011;14881;48.092;11.574;2022-09-29T09:33:21;1.08;;;0.95;;
27428;SDS011;14881;48.092;11.574;2022-09-29T09:35:58;5.15;;;1.27;;
27428;SDS011;14881;48.092;11.574;2022-09-29T09:41:07;2.45;;;1.05;;
27428;SDS011;14881;48.092;11.574;2022-09-29T09:43:38;1.85;;;0.90;;
27428;SDS011;14881;48.092;11.574;2022-09-29T09:46:13;1.15;;;1.05;;
27428;SDS011;14881;48.092;11.574;2022-09-29T09:48:50;2.60;;;1.02;;
27428;SDS011;14881;48.092;11.574;2022-09-29T09:51:37;2.38;;;1.20;;
27428;SDS011;14881;48.092;11.574;2022-09-29T09:54:13;1.10;;;1.00;;
27428;SDS011;14881;48.092;11.574;2022-09-29T09:56:54;1.80;;;1.23;;
27428;SDS011;14881;48.092;11.574;2022-09-29T09:59:48;0.93;;;0.93;;
27428;SDS011;14881;48.092;11.574;2022-09-29T10:02:31;1.25;;;1.15;;
27428;SDS011;14881;48.092;11.574;2022-09-29T10:05:00;2.33;;;1.00;;
27428;SDS011;14881;48.092;11.574;2022-09-29T10:07:35;2.78;;;1.00;;
27428;SDS011;14881;48.092;11.574;2022-09-29T10:10:04;2.72;;;1.23;;
27428;SDS011;14881;48.092;11.574;2022-09-29T10:12:42;1.70;;;1.30;;
27428;SDS011;14881;48.092;11.574;2022-09-29T10:15:14;1.77;;;1.48;;
27428;SDS011;14881;48.092;11.574;2022-09-29T10:17:49;2.85;;;1.83;;
27428;SDS011;14881;48.092;11.574;2022-09-29T10:20:32;2.92;;;1.50;;
27428;SDS011;14881;48.092;11.574;2022-09-29T10:26:01;3.22;;;2.28;;
27428;SDS011;14881;48.092;11.574;2022-09-29T10:28:37;4.90;;;2.50;;
27428;SDS011;14881;48.092;11.574;2022-09-29T10:31:19;2.75;;;1.83;;
27428;SDS011;14881;48.092;11.574;2022-09-29T10:33:52;3.45;;;2.58;;
27428;SDS011;14881;48.092;11.574;2022-09-29T10:36:23;4.22;;;2.40;;
27428;SDS011;14881;48.092;11.574;2022-09-29T10:38:53;4.15;;;2.80;;
27428;SDS011;14881;48.092;11.574;2022-09-29T10:41:28;4.30;;;3.10;;
27428;SDS011;14881;48.092;11.574;2022-09-29T10:44:13;3.45;;;2.65;;
27428;SDS011;14881;48.092;11.574;2022-09-29T10:46:49;1.95;;;1.70;;
27428;SDS011;14881;48.092;11.574;2022-09-29T10:49:21;5.55;;;1.90;;
27428;SDS011;14881;48.092;11.574;2022-09-29T10:51:55;2.33;;;1.80;;
27428;SDS011;14881;48.092;11.574;2022-09-29T10:54:26;3.17;;;1.95;;
27428;SDS011;14881;48.092;11.574;2022-09-29T10:56:57;2.20;;;2.00;;
27428;SDS011;14881;48.092;11.574;2022-09-29T10:59:26;4.07;;;1.95;;
27428;SDS011;14881;48.092;11.574;2022-09-29T11:01:55;1.95;;;1.75;;
27428;SDS011;14881;48.092;11.574;2022-09-29T11:04:28;4.90;;;1.50;;
27428;SDS011;14881;48.092;11.574;2022-09-29T11:07:04;2.72;;;1.50;;
27428;SDS011;14881;48.092;11.574;2022-09-29T11:09:36;1.73;;;1.42;;
27428;SDS011;14881;48.092;11.574;2022-09-29T11:12:21;3.65;;;1.80;;
27428;SDS011;14881;48.092;11.574;2022-09-29T11:14:57;1.88;;;1.77;;
27428;SDS011;14881;48.092;11.574;2022-09-29T11:17:27;2.28;;;1.70;;
27428;SDS011;14881;48.092;11.574;2022-09-29T11:19:59;3.15;;;2.03;;
27428;SDS011;14881;48.092;11.574;2022-09-29T11:22:44;2.20;;;1.65;;
27428;SDS011;14881;48.092;11.574;2022-09-29T11:28:41;4.07;;;2.40;;
27428;SDS011;14881;48.092;11.574;2022-09-29T11:31:25;4.45;;;2.83;;
27428;SDS011;14881;48.092;11.574;2022-09-29T11:34:10;5.80;;;3.00;;
27428;SDS011;14881;48.092;11.574;2022-09-29T11:36:55;2.55;;;2.30;;
27428;SDS011;14881;48.092;11.574;2022-09-29T11:39:36;3.67;;;1.70;;
27428;SDS011;14881;48.092;11.574;2022-09-29T11:42:22;2.10;;;1.87;;
27428;SDS011;14881;48.092;11.574;2022-09-29T11:45:03;2.40;;;1.83;;
27428;SDS011;14881;48.092;11.574;2022-09-29T11:47:38;2.15;;;2.03;;
27428;SDS011;14881;48.092;11.574;2022-09-29T11:50:22;4.25;;;1.83;;
27428;SDS011;14881;48.092;11.574;2022-09-29T11:53:03;5.15;;;1.80;;
27428;SDS011;14881;48.092;11.574;2022-09-29T11:55:45;3.67;;;1.80;;
27428;SDS011;14881;48.092;11.574;2022-09-29T11:58:28;2.13;;;1.77;;
27428;SDS011;14881;48.092;11.574;2022-09-29T12:01:13;2.55;;;1.98;;
27428;SDS011;14881;48.092;11.574;2022-09-29T12:03:58;4.22;;;2.20;;
27428;SDS011;14881;48.092;11.574;2022-09-29T12:06:55;2.30;;;1.70;;
27428;SDS011;14881;48.092;11.574;2022-09-29T12:09:39;2.22;;;2.03;;
27428;SDS011;14881;48.092;11.574;2022-09-29T12:12:30;3.17;;;1.90;;
27428;SDS011;14881;48.092;11.574;2022-09-29T12:15:16;1.80;;;1.70;;
27428;SDS011;14881;48.092;11.574;2022-09-29T12:17:52;1.75;;;1.65;;
27428;SDS011;14881;48.092;11.574;2022-09-29T12:20:25;2.22;;;1.90;;
27428;SDS011;14881;48.092;11.574;2022-09-29T12:22:56;2.30;;;2.13;;
27428;SDS011;14881;48.092;11.574;2022-09-29T12:25:33;2.65;;;2.05;;
27428;SDS011;14881;48.092;11.574;2022-09-29T12:28:10;3.28;;;1.90;;
27428;SDS011;14881;48.092;11.574;2022-09-29T12:30:43;2.10;;;1.90;;
27428;SDS011;14881;48.092;11.574;2022-09-29T12:33:15;1.92;;;1.77;;
27428;SDS011;14881;48.092;11.574;2022-09-29T12:35:51;2.10;;;1.70;;
27428;SDS011;14881;48.092;11.574;2022-09-29T12:38:29;2.40;;;2.15;;
27428;SDS011;14881;48.092;11.574;2022-09-29T12:41:08;2.47;;;1.90;;
27428;SDS011;14881;48.092;11.574;2022-09-29T12:43:44;2.55;;;1.80;;
27428;SDS011;14881;48.092;11.574;2022-09-29T12:46:19;2.80;;;2.25;;
27428;SDS011;14881;48.092;11.574;2022-09-29T12:48:57;2.60;;;2.20;;
27428;SDS011;14881;48.092;11.574;2022-09-29T12:51:32;3.30;;;2.22;;
27428;SDS011;14881;48.092;11.574;2022-09-29T12:54:08;2.58;;;2.17;;
27428;SDS011;14881;48.092;11.574;2022-09-29T12:56:45;4.35;;;2.35;;
27428;SDS011;14881;48.092;11.574;2022-09-29T12:59:24;2.85;;;2.50;;
27428;SDS011;14881;48.092;11.574;2022-09-29T13:01:59;4.47;;;2.72;;
27428;SDS011;14881;48.092;11.574;2022-09-29T13:04:52;3.60;;;2.40;;
27428;SDS011;14881;48.092;11.574;2022-09-29T13:07:50;4.18;;;2.22;;
27428;SDS011;14881;48.092;11.574;2022-09-29T13:10:57;3.92;;;2.30;;
27428;SDS011;14881;48.092;11.574;2022-09-29T13:13:49;3.92;;;2.38;;
27428;SDS011;14881;48.092;11.574;2022-09-29T13:16:38;3.40;;;2.00;;
27428;SDS011;14881;48.092;11.574;2022-09-29T13:19:22;1.50;;;1.40;;
27428;SDS011;14881;48.092;11.574;2022-09-29T13:22:28;1.58;;;1.48;;
27428;SDS011;14881;48.092;11.574;2022-09-29T13:25:07;3.28;;;1.88;;
27428;SDS011;14881;48.092;11.574;2022-09-29T13:27:46;3.13;;;2.05;;
27428;SDS011;14881;48.092;11.574;2022-09-29T13:30:18;3.30;;;2.30;;
27428;SDS011;14881;48.092;11.574;2022-09-29T13:32:49;2.17;;;1.98;;
27428;SDS011;14881;48.092;11.574;2022-09-29T13:35:23;3.17;;;2.22;;
27428;SDS011;14881;48.092;11.574;2022-09-29T13:37:53;2.67;;;2.30;;
27428;SDS011;14881;48.092;11.574;2022-09-29T13:40:28;4.10;;;2.40;;
27428;SDS011;14881;48.092;11.574;2022-09-29T13:42:58;5.10;;;2.10;;
27428;SDS011;14881;48.092;11.574;2022-09-29T13:45:41;2.70;;;2.45;;
27428;SDS011;14881;48.092;11.574;2022-09-29T13:48:34;3.35;;;2.75;;
27428;SDS011;14881;48.092;11.574;2022-09-29T13:51:23;3.88;;;3.00;;
27428;SDS011;14881;48.092;11.574;2022-09-29T14:06:05;6.10;;;3.75;;
27428;SDS011;14881;48.092;11.574;2022-09-29T14:08:59;7.63;;;4.55;;
27428;SDS011;14881;48.092;11.574;2022-09-29T14:11:34;7.18;;;5.10;;
27428;SDS011;14881;48.092;11.574;2022-09-29T14:14:04;5.75;;;4.82;;
27428;SDS011;14881;48.092;11.574;2022-09-29T14:16:37;7.45;;;4.40;;
27428;SDS011;14881;48.092;11.574;2022-09-29T14:19:22;5.15;;;4.45;;
27428;SDS011;14881;48.092;11.574;2022-09-29T14:22:01;6.93;;;4.88;;
27428;SDS011;14881;48.092;11.574;2022-09-29T14:24:44;8.18;;;5.30;;
27428;SDS011;14881;48.092;11.574;2022-09-29T14:27:25;7.60;;;5.20;;
27428;SDS011;14881;48.092;11.574;2022-09-29T14:30:12;5.57;;;4.70;;
27428;SDS011;14881;48.092;11.574;2022-09-29T14:32:45;8.40;;;5.68;;
27428;SDS011;14881;48.092;11.574;2022-09-29T14:35:22;6.47;;;5.47;;
27428;SDS011;14881;48.092;11.574;2022-09-29T14:37:58;7.25;;;5.35;;
27428;SDS011;14881;48.092;11.574;2022-09-29T14:40:31;9.95;;;6.18;;
27428;SDS011;14881;48.092;11.574;2022-09-29T14:43:04;6.32;;;5.72;;
27428;SDS011;14881;48.092;11.574;2022-09-29T14:45:40;6.65;;;5.78;;
27428;SDS011;14881;48.092;11.574;2022-09-29T14:48:38;6.70;;;6.00;;
27428;SDS011;14881;48.092;11.574;2022-09-29T14:51:35;7.18;;;6.38;;
27428;SDS011;14881;48.092;11.574;2022-09-29T14:54:29;8.75;;;5.72;;
27428;SDS011;14881;48.092;11.574;2022-09-29T14:57:12;7.65;;;6.35;;
27428;SDS011;14881;48.092;11.574;2022-09-29T15:00:01;9.68;;;7.25;;
27428;SDS011;14881;48.092;11.574;2022-09-29T15:02:36;8.82;;;6.43;;
27428;SDS011;14881;48.092;11.574;2022-09-29T15:05:11;8.35;;;7.20;;
27428;SDS011;14881;48.092;11.574;2022-09-29T15:07:42;9.32;;;7.93;;
27428;SDS011;14881;48.092;11.574;2022-09-29T15:15:42;9.05;;;7.50;;
27428;SDS011;14881;48.092;11.574;2022-09-29T15:18:19;13.68;;;9.18;;
27428;SDS011;14881;48.092;11.574;2022-09-29T15:21:01;16.08;;;9.88;;
27428;SDS011;14881;48.092;11.574;2022-09-29T15:23:53;12.98;;;10.27;;
27428;SDS011;14881;48.092;11.574;2022-09-29T15:26:41;12.02;;;10.32;;
27428;SDS011;14881;48.092;11.574;2022-09-29T15:29:12;11.98;;;10.38;;
27428;SDS011;14881;48.092;11.574;2022-09-29T15:31:43;14.52;;;11.65;;
27428;SDS011;14881;48.092;11.574;2022-09-29T15:34:14;15.52;;;11.65;;
27428;SDS011;14881;48.092;11.574;2022-09-29T15:36:47;16.73;;;13.20;;
27428;SDS011;14881;48.092;11.574;2022-09-29T15:39:36;15.30;;;12.70;;
27428;SDS011;14881;48.092;11.574;2022-09-29T15:42:11;15.63;;;13.45;;
27428;SDS011;14881;48.092;11.574;2022-09-29T15:44:45;23.15;;;14.73;;